sensor_id;sensor_type;location;lat;lon;timestamp;pressure;altitude;pressure_sealevel;temperature;humidity
11223;BME280;5668;52.012;8.724;2022-07-23T00:00:19;100424.28;;;20.10;78.42
11223;BME280;5668;52.012;8.724;2022-07-23T00:02:47;100423.59;;;20.08;78.22
11223;BME280;5668;52.012;8.724;2022-07-23T00:05:14;100421.31;;;20.05;78.12
11223;BME280;5668;52.012;8.724;2022-07-23T00:07:42;100424.94;;;20.04;78.23
11223;BME280;5668;52.012;8.724;2022-07-23T00:10:10;100428.56;;;20.03;78.03
11223;BME280;5668;52.012;8.724;2022-07-23T00:12:40;100425.94;;;20.03;78.66
11223;BME280;5668;52.012;8.724;2022-07-23T00:15:08;100417.53;;;19.99;79.02
11223;BME280;5668;52.012;8.724;2022-07-23T00:17:35;100412.25;;;19.99;78.92
11223;BME280;5668;52.012;8.724;2022-07-23T00:20:04;100413.41;;;19.97;78.90
11223;BME280;5668;52.012;8.724;2022-07-23T00:22:33;100422.31;;;19.96;78.62
11223;BME280;5668;52.012;8.724;2022-07-23T00:25:00;100421.47;;;19.95;78.74
11223;BME280;5668;52.012;8.724;2022-07-23T00:27:27;100428.72;;;19.93;79.13
11223;BME280;5668;52.012;8.724;2022-07-23T00:29:55;100421.00;;;19.92;79.26
11223;BME280;5668;52.012;8.724;2022-07-23T00:32:23;100428.91;;;19.92;79.07
11223;BME280;5668;52.012;8.724;2022-07-23T00:34:50;100425.59;;;19.90;79.16
11223;BME280;5668;52.012;8.724;2022-07-23T00:37:17;100432.19;;;19.86;79.17
11223;BME280;5668;52.012;8.724;2022-07-23T00:39:44;100423.94;;;19.81;78.74
11223;BME280;5668;52.012;8.724;2022-07-23T00:42:11;100428.88;;;19.67;79.28
11223;BME280;5668;52.012;8.724;2022-07-23T00:44:39;100431.53;;;19.67;79.87
11223;BME280;5668;52.012;8.724;2022-07-23T00:47:07;100425.25;;;19.68;79.50
11223;BME280;5668;52.012;8.724;2022-07-23T00:49:34;100432.19;;;19.69;79.73
11223;BME280;5668;52.012;8.724;2022-07-23T00:52:02;100436.44;;;19.70;79.60
11223;BME280;5668;52.012;8.724;2022-07-23T00:54:30;100444.56;;;19.69;79.56
11223;BME280;5668;52.012;8.724;2022-07-23T00:56:57;100444.56;;;19.69;79.69
11223;BME280;5668;52.012;8.724;2022-07-23T00:59:25;100438.75;;;19.65;79.71
11223;BME280;5668;52.012;8.724;2022-07-23T01:01:52;100447.50;;;19.66;79.62
11223;BME280;5668;52.012;8.724;2022-07-23T01:04:20;100451.78;;;19.67;79.60
11223;BME280;5668;52.012;8.724;2022-07-23T01:06:48;100441.09;;;19.68;80.08
11223;BME280;5668;52.012;8.724;2022-07-23T01:09:15;100441.72;;;19.70;80.44
11223;BME280;5668;52.012;8.724;2022-07-23T01:11:43;100437.28;;;19.71;80.81
11223;BME280;5668;52.012;8.724;2022-07-23T01:14:12;100448.00;;;19.69;81.17
11223;BME280;5668;52.012;8.724;2022-07-23T01:16:43;100449.00;;;19.68;81.50
11223;BME280;5668;52.012;8.724;2022-07-23T01:19:10;100442.75;;;19.69;81.97
11223;BME280;5668;52.012;8.724;2022-07-23T01:21:41;100436.63;;;19.69;81.98
11223;BME280;5668;52.012;8.724;2022-07-23T01:24:10;100433.19;;;19.68;82.05
11223;BME280;5668;52.012;8.724;2022-07-23T01:26:40;100433.19;;;19.68;82.11
11223;BME280;5668;52.012;8.724;2022-07-23T01:29:07;100447.34;;;19.67;82.58
11223;BME280;5668;52.012;8.724;2022-07-23T01:31:35;100456.91;;;19.68;82.78
11223;BME280;5668;52.012;8.724;2022-07-23T01:34:02;100458.56;;;19.69;83.09
11223;BME280;5668;52.012;8.724;2022-07-23T01:36:30;100456.56;;;19.71;83.17
11223;BME280;5668;52.012;8.724;2022-07-23T01:38:57;100450.31;;;19.73;83.43
11223;BME280;5668;52.012;8.724;2022-07-23T01:41:25;100449.31;;;19.74;83.22
11223;BME280;5668;52.012;8.724;2022-07-23T01:43:53;100445.03;;;19.73;83.14
11223;BME280;5668;52.012;8.724;2022-07-23T01:46:20;100442.25;;;19.74;83.11
11223;BME280;5668;52.012;8.724;2022-07-23T01:48:47;100434.31;;;19.74;82.71
11223;BME280;5668;52.012;8.724;2022-07-23T01:51:15;100429.88;;;19.75;82.57
11223;BME280;5668;52.012;8.724;2022-07-23T01:53:42;100422.63;;;19.77;82.06
11223;BME280;5668;52.012;8.724;2022-07-23T01:56:09;100420.00;;;19.77;82.08
11223;BME280;5668;52.012;8.724;2022-07-23T01:58:38;100411.72;;;19.71;82.09
11223;BME280;5668;52.012;8.724;2022-07-23T02:01:05;100400.84;;;19.66;81.72
11223;BME280;5668;52.012;8.724;2022-07-23T02:03:32;100390.63;;;19.63;81.78
11223;BME280;5668;52.012;8.724;2022-07-23T02:06:00;100390.81;;;19.54;82.39
11223;BME280;5668;52.012;8.724;2022-07-23T02:08:27;100381.50;;;19.42;83.60
11223;BME280;5668;52.012;8.724;2022-07-23T02:10:54;100370.47;;;19.38;83.87
11223;BME280;5668;52.012;8.724;2022-07-23T02:13:21;100360.59;;;19.32;84.92
11223;BME280;5668;52.012;8.724;2022-07-23T02:15:50;100362.88;;;19.27;85.49
11223;BME280;5668;52.012;8.724;2022-07-23T02:18:17;100378.50;;;19.20;85.78
11223;BME280;5668;52.012;8.724;2022-07-23T02:20:44;100364.03;;;19.24;85.80
11223;BME280;5668;52.012;8.724;2022-07-23T02:23:11;100369.47;;;19.23;85.83
11223;BME280;5668;52.012;8.724;2022-07-23T02:25:39;100377.03;;;19.26;86.08
11223;BME280;5668;52.012;8.724;2022-07-23T02:28:06;100370.94;;;19.33;86.07
11223;BME280;5668;52.012;8.724;2022-07-23T02:30:33;100377.41;;;19.39;85.55
11223;BME280;5668;52.012;8.724;2022-07-23T02:33:01;100372.63;;;19.43;85.05
11223;BME280;5668;52.012;8.724;2022-07-23T02:35:29;100375.41;;;19.41;84.70
11223;BME280;5668;52.012;8.724;2022-07-23T02:37:56;100374.41;;;19.34;85.02
11223;BME280;5668;52.012;8.724;2022-07-23T02:40:23;100373.41;;;19.27;85.29
11223;BME280;5668;52.012;8.724;2022-07-23T02:42:50;100376.03;;;19.19;85.85
11223;BME280;5668;52.012;8.724;2022-07-23T02:45:17;100379.47;;;19.19;86.10
11223;BME280;5668;52.012;8.724;2022-07-23T02:47:45;100380.00;;;19.23;86.23
11223;BME280;5668;52.012;8.724;2022-07-23T02:50:14;100367.00;;;19.29;86.07
11223;BME280;5668;52.012;8.724;2022-07-23T02:52:42;100374.09;;;19.37;85.51
11223;BME280;5668;52.012;8.724;2022-07-23T02:55:09;100377.88;;;19.43;85.57
11223;BME280;5668;52.012;8.724;2022-07-23T02:57:36;100379.25;;;19.47;85.28
11223;BME280;5668;52.012;8.724;2022-07-23T03:02:30;100388.31;;;19.52;84.54
11223;BME280;5668;52.012;8.724;2022-07-23T03:04:57;100384.50;;;19.55;84.14
11223;BME280;5668;52.012;8.724;2022-07-23T03:07:25;100381.72;;;19.56;84.21
11223;BME280;5668;52.012;8.724;2022-07-23T03:09:53;100389.47;;;19.58;84.08
11223;BME280;5668;52.012;8.724;2022-07-23T03:12:20;100378.78;;;19.59;83.70
11223;BME280;5668;52.012;8.724;2022-07-23T03:14:47;100376.97;;;19.60;83.78
11223;BME280;5668;52.012;8.724;2022-07-23T03:17:14;100388.34;;;19.60;83.89
11223;BME280;5668;52.012;8.724;2022-07-23T03:19:42;100386.00;;;19.57;84.21
11223;BME280;5668;52.012;8.724;2022-07-23T03:22:09;100370.69;;;19.53;84.67
11223;BME280;5668;52.012;8.724;2022-07-23T03:24:37;100379.75;;;19.50;84.46
11223;BME280;5668;52.012;8.724;2022-07-23T03:27:24;100390.59;;;19.47;85.00
11223;BME280;5668;52.012;8.724;2022-07-23T03:29:52;100385.63;;;19.44;84.69
11223;BME280;5668;52.012;8.724;2022-07-23T03:32:20;100378.72;;;19.43;84.92
11223;BME280;5668;52.012;8.724;2022-07-23T03:34:50;100382.34;;;19.42;84.70
11223;BME280;5668;52.012;8.724;2022-07-23T03:37:18;100383.97;;;19.43;84.42
11223;BME280;5668;52.012;8.724;2022-07-23T03:39:47;100394.53;;;19.43;84.05
11223;BME280;5668;52.012;8.724;2022-07-23T03:42:14;100392.56;;;19.45;83.95
11223;BME280;5668;52.012;8.724;2022-07-23T03:44:41;100389.94;;;19.45;83.57
11223;BME280;5668;52.012;8.724;2022-07-23T03:47:08;100389.25;;;19.43;83.70
11223;BME280;5668;52.012;8.724;2022-07-23T03:49:36;100390.25;;;19.42;83.49
11223;BME280;5668;52.012;8.724;2022-07-23T03:52:03;100385.78;;;19.43;83.29
11223;BME280;5668;52.012;8.724;2022-07-23T03:54:31;100387.75;;;19.41;82.91
11223;BME280;5668;52.012;8.724;2022-07-23T03:56:59;100384.28;;;19.40;82.71
11223;BME280;5668;52.012;8.724;2022-07-23T03:59:27;100386.28;;;19.38;82.62
11223;BME280;5668;52.012;8.724;2022-07-23T04:01:54;100386.44;;;19.37;82.82
11223;BME280;5668;52.012;8.724;2022-07-23T04:04:21;100389.09;;;19.37;82.93
11223;BME280;5668;52.012;8.724;2022-07-23T04:06:48;100383.28;;;19.33;82.97
11223;BME280;5668;52.012;8.724;2022-07-23T04:09:16;100384.47;;;19.30;83.08
11223;BME280;5668;52.012;8.724;2022-07-23T04:11:43;100390.88;;;19.28;83.23
11223;BME280;5668;52.012;8.724;2022-07-23T04:14:11;100384.94;;;19.26;83.23
11223;BME280;5668;52.012;8.724;2022-07-23T04:16:39;100387.91;;;19.23;83.39
11223;BME280;5668;52.012;8.724;2022-07-23T04:19:06;100387.91;;;19.23;83.54
11223;BME280;5668;52.012;8.724;2022-07-23T04:21:33;100391.53;;;19.22;83.40
11223;BME280;5668;52.012;8.724;2022-07-23T04:24:00;100399.72;;;19.19;83.03
11223;BME280;5668;52.012;8.724;2022-07-23T04:26:28;100394.47;;;19.19;82.89
11223;BME280;5668;52.012;8.724;2022-07-23T04:28:55;100396.13;;;19.20;82.87
11223;BME280;5668;52.012;8.724;2022-07-23T04:31:23;100395.44;;;19.18;82.52
11223;BME280;5668;52.012;8.724;2022-07-23T04:33:50;100400.72;;;19.18;82.47
11223;BME280;5668;52.012;8.724;2022-07-23T04:36:18;100405.00;;;19.19;82.62
11223;BME280;5668;52.012;8.724;2022-07-23T04:38:45;100398.28;;;19.16;82.86
11223;BME280;5668;52.012;8.724;2022-07-23T04:41:12;100394.81;;;19.16;82.68
11223;BME280;5668;52.012;8.724;2022-07-23T04:43:39;100389.53;;;19.16;82.64
11223;BME280;5668;52.012;8.724;2022-07-23T04:46:07;100404.38;;;19.17;82.73
11223;BME280;5668;52.012;8.724;2022-07-23T04:48:35;100396.78;;;19.14;82.42
11223;BME280;5668;52.012;8.724;2022-07-23T04:51:03;100406.63;;;19.12;82.61
11223;BME280;5668;52.012;8.724;2022-07-23T04:53:30;100398.06;;;19.10;82.84
11223;BME280;5668;52.012;8.724;2022-07-23T04:55:57;100397.75;;;19.13;82.47
11223;BME280;5668;52.012;8.724;2022-07-23T04:58:25;100396.09;;;19.12;82.70
11223;BME280;5668;52.012;8.724;2022-07-23T05:00:52;100392.78;;;19.10;83.05
11223;BME280;5668;52.012;8.724;2022-07-23T05:03:19;100395.13;;;19.13;83.15
11223;BME280;5668;52.012;8.724;2022-07-23T05:05:48;100397.91;;;19.11;83.11
11223;BME280;5668;52.012;8.724;2022-07-23T05:08:15;100401.69;;;19.09;83.38
11223;BME280;5668;52.012;8.724;2022-07-23T05:10:42;100406.16;;;19.08;83.44
11223;BME280;5668;52.012;8.724;2022-07-23T05:13:10;100404.81;;;19.12;83.77
11223;BME280;5668;52.012;8.724;2022-07-23T05:15:37;100412.41;;;19.15;83.83
11223;BME280;5668;52.012;8.724;2022-07-23T05:18:04;100397.09;;;19.19;83.88
11223;BME280;5668;52.012;8.724;2022-07-23T05:20:32;100405.69;;;19.21;83.66
11223;BME280;5668;52.012;8.724;2022-07-23T05:23:00;100414.25;;;19.23;83.90
11223;BME280;5668;52.012;8.724;2022-07-23T05:25:28;100416.56;;;19.26;83.71
11223;BME280;5668;52.012;8.724;2022-07-23T05:27:55;100412.94;;;19.27;83.88
11223;BME280;5668;52.012;8.724;2022-07-23T05:30:22;100408.34;;;19.29;84.09
11223;BME280;5668;52.012;8.724;2022-07-23T05:32:49;100417.06;;;19.29;83.95
11223;BME280;5668;52.012;8.724;2022-07-23T05:35:17;100409.84;;;19.31;83.72
11223;BME280;5668;52.012;8.724;2022-07-23T05:37:44;100410.31;;;19.35;83.43
11223;BME280;5668;52.012;8.724;2022-07-23T05:40:14;100411.31;;;19.34;83.49
11223;BME280;5668;52.012;8.724;2022-07-23T05:42:42;100404.38;;;19.33;83.46
11223;BME280;5668;52.012;8.724;2022-07-23T05:45:10;100409.34;;;19.36;83.78
11223;BME280;5668;52.012;8.724;2022-07-23T05:47:42;100409.03;;;19.39;83.49
11223;BME280;5668;52.012;8.724;2022-07-23T05:50:10;100404.91;;;19.45;83.50
11223;BME280;5668;52.012;8.724;2022-07-23T05:52:37;100415.63;;;19.43;83.50
11223;BME280;5668;52.012;8.724;2022-07-23T05:55:05;100416.97;;;19.47;83.51
11223;BME280;5668;52.012;8.724;2022-07-23T05:57:34;100420.94;;;19.51;83.65
11223;BME280;5668;52.012;8.724;2022-07-23T06:00:02;100416.97;;;19.55;84.14
11223;BME280;5668;52.012;8.724;2022-07-23T06:02:29;100429.53;;;19.61;84.48
11223;BME280;5668;52.012;8.724;2022-07-23T06:04:56;100417.34;;;19.68;84.72
11223;BME280;5668;52.012;8.724;2022-07-23T06:07:24;100427.41;;;19.73;84.31
11223;BME280;5668;52.012;8.724;2022-07-23T06:09:51;100425.91;;;19.79;83.53
11223;BME280;5668;52.012;8.724;2022-07-23T06:12:18;100430.22;;;19.80;83.72
11223;BME280;5668;52.012;8.724;2022-07-23T06:14:47;100427.88;;;19.85;83.15
11223;BME280;5668;52.012;8.724;2022-07-23T06:17:15;100430.22;;;19.88;83.72
11223;BME280;5668;52.012;8.724;2022-07-23T06:19:42;100432.84;;;19.96;82.94
11223;BME280;5668;52.012;8.724;2022-07-23T06:22:10;100443.91;;;19.99;83.33
11223;BME280;5668;52.012;8.724;2022-07-23T06:24:37;100438.97;;;20.04;82.98
11223;BME280;5668;52.012;8.724;2022-07-23T06:27:05;100436.81;;;20.08;82.94
11223;BME280;5668;52.012;8.724;2022-07-23T06:29:32;100439.63;;;20.15;82.88
11223;BME280;5668;52.012;8.724;2022-07-23T06:32:00;100441.75;;;20.19;81.95
11223;BME280;5668;52.012;8.724;2022-07-23T06:34:28;100441.91;;;20.18;81.84
11223;BME280;5668;52.012;8.724;2022-07-23T06:36:55;100443.06;;;20.23;81.39
11223;BME280;5668;52.012;8.724;2022-07-23T06:39:22;100441.44;;;20.22;80.86
11223;BME280;5668;52.012;8.724;2022-07-23T06:41:49;100452.78;;;20.23;81.31
11223;BME280;5668;52.012;8.724;2022-07-23T06:44:17;100447.34;;;20.24;80.44
11223;BME280;5668;52.012;8.724;2022-07-23T06:46:44;100441.09;;;20.25;80.22
11223;BME280;5668;52.012;8.724;2022-07-23T06:49:13;100453.31;;;20.26;79.46
11223;BME280;5668;52.012;8.724;2022-07-23T06:51:40;100451.13;;;20.30;79.96
11223;BME280;5668;52.012;8.724;2022-07-23T06:54:07;100453.16;;;20.36;79.45
11223;BME280;5668;52.012;8.724;2022-07-23T06:56:35;100456.63;;;20.36;80.20
11223;BME280;5668;52.012;8.724;2022-07-23T06:59:02;100460.91;;;20.37;80.30
11223;BME280;5668;52.012;8.724;2022-07-23T07:01:29;100461.91;;;20.36;79.65
11223;BME280;5668;52.012;8.724;2022-07-23T07:03:57;100462.56;;;20.38;79.31
11223;BME280;5668;52.012;8.724;2022-07-23T07:06:25;100465.69;;;20.42;79.69
11223;BME280;5668;52.012;8.724;2022-07-23T07:08:52;100466.19;;;20.45;79.88
11223;BME280;5668;52.012;8.724;2022-07-23T07:11:20;100465.69;;;20.50;78.96
11223;BME280;5668;52.012;8.724;2022-07-23T07:13:49;100466.53;;;20.51;78.28
11223;BME280;5668;52.012;8.724;2022-07-23T07:16:16;100467.50;;;20.50;77.80
11223;BME280;5668;52.012;8.724;2022-07-23T07:18:44;100472.63;;;20.51;77.86
11223;BME280;5668;52.012;8.724;2022-07-23T07:21:12;100468.47;;;20.57;77.93
11223;BME280;5668;52.012;8.724;2022-07-23T07:23:40;100468.63;;;20.63;77.53
11223;BME280;5668;52.012;8.724;2022-07-23T07:26:08;100474.91;;;20.62;77.38
11223;BME280;5668;52.012;8.724;2022-07-23T07:28:35;100474.41;;;20.67;76.67
11223;BME280;5668;52.012;8.724;2022-07-23T07:31:03;100471.25;;;20.71;76.48
11223;BME280;5668;52.012;8.724;2022-07-23T07:33:30;100477.38;;;20.72;75.70
11223;BME280;5668;52.012;8.724;2022-07-23T07:35:57;100472.41;;;20.69;75.45
11223;BME280;5668;52.012;8.724;2022-07-23T07:38:26;100475.72;;;20.71;74.75
11223;BME280;5668;52.012;8.724;2022-07-23T07:40:55;100484.63;;;20.70;74.10
11223;BME280;5668;52.012;8.724;2022-07-23T07:43:22;100488.44;;;20.67;73.75
11223;BME280;5668;52.012;8.724;2022-07-23T07:45:49;100491.25;;;20.74;73.86
11223;BME280;5668;52.012;8.724;2022-07-23T07:48:16;100488.75;;;20.72;74.01
11223;BME280;5668;52.012;8.724;2022-07-23T07:50:44;100492.38;;;20.71;72.93
11223;BME280;5668;52.012;8.724;2022-07-23T07:53:11;100496.84;;;20.71;73.23
11223;BME280;5668;52.012;8.724;2022-07-23T07:55:38;100496.84;;;20.71;74.29
11223;BME280;5668;52.012;8.724;2022-07-23T07:58:07;100501.66;;;20.67;74.85
11223;BME280;5668;52.012;8.724;2022-07-23T08:00:34;100504.31;;;20.67;74.96
11223;BME280;5668;52.012;8.724;2022-07-23T08:03:01;100507.25;;;20.64;74.04
11223;BME280;5668;52.012;8.724;2022-07-23T08:05:30;100504.94;;;20.69;73.88
11223;BME280;5668;52.012;8.724;2022-07-23T08:07:58;100505.75;;;20.70;73.58
11223;BME280;5668;52.012;8.724;2022-07-23T08:10:27;100512.38;;;20.74;73.37
11223;BME280;5668;52.012;8.724;2022-07-23T08:12:55;100507.91;;;20.74;72.71
11223;BME280;5668;52.012;8.724;2022-07-23T08:15:26;100505.09;;;20.76;72.60
11223;BME280;5668;52.012;8.724;2022-07-23T08:17:54;100507.56;;;20.77;72.63
11223;BME280;5668;52.012;8.724;2022-07-23T08:20:23;100505.22;;;20.82;73.04
11223;BME280;5668;52.012;8.724;2022-07-23T08:22:52;100515.00;;;20.82;72.46
11223;BME280;5668;52.012;8.724;2022-07-23T08:25:21;100520.28;;;20.82;71.48
11223;BME280;5668;52.012;8.724;2022-07-23T08:27:49;100520.44;;;20.89;71.33
11223;BME280;5668;52.012;8.724;2022-07-23T08:30:16;100518.78;;;20.88;70.27
11223;BME280;5668;52.012;8.724;2022-07-23T08:32:56;100516.13;;;20.88;69.56
11223;BME280;5668;52.012;8.724;2022-07-23T08:35:28;100516.44;;;20.93;70.42
11223;BME280;5668;52.012;8.724;2022-07-23T08:37:56;100520.88;;;21.00;69.44
11223;BME280;5668;52.012;8.724;2022-07-23T08:40:25;100518.09;;;21.02;70.30
11223;BME280;5668;52.012;8.724;2022-07-23T08:42:52;100514.06;;;21.14;70.41
11223;BME280;5668;52.012;8.724;2022-07-23T08:45:22;100517.91;;;21.19;70.05
11223;BME280;5668;52.012;8.724;2022-07-23T08:47:56;100516.25;;;21.18;68.41
11223;BME280;5668;52.012;8.724;2022-07-23T08:50:25;100517.72;;;21.21;68.07
11223;BME280;5668;52.012;8.724;2022-07-23T08:52:53;100518.22;;;21.24;68.05
11223;BME280;5668;52.012;8.724;2022-07-23T08:55:23;100527.78;;;21.26;68.41
11223;BME280;5668;52.012;8.724;2022-07-23T08:57:52;100524.94;;;21.66;67.05
11223;BME280;5668;52.012;8.724;2022-07-23T09:00:21;100523.41;;;21.49;66.61
11223;BME280;5668;52.012;8.724;2022-07-23T09:02:49;100526.22;;;21.47;66.45
11223;BME280;5668;52.012;8.724;2022-07-23T09:05:18;100527.88;;;21.48;66.21
11223;BME280;5668;52.012;8.724;2022-07-23T09:08:11;100529.53;;;21.49;65.77
11223;BME280;5668;52.012;8.724;2022-07-23T09:10:46;100518.56;;;21.52;64.60
11223;BME280;5668;52.012;8.724;2022-07-23T09:13:31;100525.00;;;21.58;64.39
11223;BME280;5668;52.012;8.724;2022-07-23T09:16:00;100517.34;;;21.71;64.78
11223;BME280;5668;52.012;8.724;2022-07-23T09:18:50;100519.78;;;21.73;64.11
11223;BME280;5668;52.012;8.724;2022-07-23T09:21:24;100532.50;;;21.77;65.03
11223;BME280;5668;52.012;8.724;2022-07-23T09:23:56;100523.69;;;21.85;65.33
11223;BME280;5668;52.012;8.724;2022-07-23T09:26:30;100526.47;;;21.91;64.68
11223;BME280;5668;52.012;8.724;2022-07-23T09:29:00;100525.09;;;21.95;63.17
11223;BME280;5668;52.012;8.724;2022-07-23T09:31:33;100527.28;;;22.00;64.50
11223;BME280;5668;52.012;8.724;2022-07-23T09:34:08;100518.50;;;21.99;64.81
11223;BME280;5668;52.012;8.724;2022-07-23T09:36:37;100525.63;;;21.99;64.53
11223;BME280;5668;52.012;8.724;2022-07-23T09:39:05;100523.16;;;21.97;64.88
11223;BME280;5668;52.012;8.724;2022-07-23T09:41:38;100526.78;;;21.96;63.81
11223;BME280;5668;52.012;8.724;2022-07-23T09:44:13;100523.50;;;21.94;64.58
11223;BME280;5668;52.012;8.724;2022-07-23T09:46:42;100525.78;;;21.97;64.67
11223;BME280;5668;52.012;8.724;2022-07-23T09:49:12;100524.47;;;22.02;64.56
11223;BME280;5668;52.012;8.724;2022-07-23T09:51:47;100541.13;;;22.10;64.35
11223;BME280;5668;52.012;8.724;2022-07-23T09:54:23;100534.28;;;22.16;64.74
11223;BME280;5668;52.012;8.724;2022-07-23T09:56:52;100527.28;;;22.23;64.98
11223;BME280;5668;52.012;8.724;2022-07-23T09:59:23;100533.13;;;22.33;64.76
11223;BME280;5668;52.012;8.724;2022-07-23T10:01:53;100534.09;;;22.40;63.01
11223;BME280;5668;52.012;8.724;2022-07-23T10:04:22;100537.84;;;22.46;62.71
11223;BME280;5668;52.012;8.724;2022-07-23T10:06:53;100541.97;;;22.48;62.70
11223;BME280;5668;52.012;8.724;2022-07-23T10:09:25;100543.91;;;22.54;62.94
11223;BME280;5668;52.012;8.724;2022-07-23T10:11:55;100526.47;;;22.60;64.26
11223;BME280;5668;52.012;8.724;2022-07-23T10:14:25;100531.53;;;22.69;63.40
11223;BME280;5668;52.012;8.724;2022-07-23T10:16:53;100523.56;;;22.69;62.19
11223;BME280;5668;52.012;8.724;2022-07-23T10:19:21;100531.31;;;22.71;63.07
11223;BME280;5668;52.012;8.724;2022-07-23T10:21:52;100528.19;;;22.75;62.31
11223;BME280;5668;52.012;8.724;2022-07-23T10:24:28;100531.09;;;22.81;62.31
11223;BME280;5668;52.012;8.724;2022-07-23T10:27:04;100527.38;;;22.90;63.01
11223;BME280;5668;52.012;8.724;2022-07-23T10:29:45;100527.63;;;22.95;61.97
11223;BME280;5668;52.012;8.724;2022-07-23T10:32:21;100528.94;;;22.99;62.11
11223;BME280;5668;52.012;8.724;2022-07-23T10:34:55;100532.69;;;23.04;61.96
11223;BME280;5668;52.012;8.724;2022-07-23T10:37:31;100530.50;;;23.08;61.77
11223;BME280;5668;52.012;8.724;2022-07-23T10:40:10;100540.63;;;23.48;60.49
11223;BME280;5668;52.012;8.724;2022-07-23T10:42:40;100530.09;;;23.26;60.82
11223;BME280;5668;52.012;8.724;2022-07-23T10:45:25;100530.38;;;23.16;61.80
11223;BME280;5668;52.012;8.724;2022-07-23T10:47:53;100516.13;;;23.17;61.90
11223;BME280;5668;52.012;8.724;2022-07-23T10:50:24;100517.41;;;23.21;61.35
11223;BME280;5668;52.012;8.724;2022-07-23T10:53:11;100518.97;;;23.30;61.40
11223;BME280;5668;52.012;8.724;2022-07-23T10:55:50;100524.16;;;23.38;61.00
11223;BME280;5668;52.012;8.724;2022-07-23T10:58:23;100519.78;;;23.45;60.00
11223;BME280;5668;52.012;8.724;2022-07-23T11:00:51;100521.06;;;23.49;59.26
11223;BME280;5668;52.012;8.724;2022-07-23T11:03:33;100517.00;;;23.53;58.34
11223;BME280;5668;52.012;8.724;2022-07-23T11:06:04;100519.06;;;23.51;58.78
11223;BME280;5668;52.012;8.724;2022-07-23T11:08:33;100513.75;;;23.51;58.94
11223;BME280;5668;52.012;8.724;2022-07-23T11:11:10;100523.97;;;23.54;59.52
11223;BME280;5668;52.012;8.724;2022-07-23T11:13:46;100523.63;;;23.58;59.32
11223;BME280;5668;52.012;8.724;2022-07-23T11:16:19;100515.09;;;23.62;58.89
11223;BME280;5668;52.012;8.724;2022-07-23T11:18:57;100517.69;;;23.77;59.16
11223;BME280;5668;52.012;8.724;2022-07-23T11:21:44;100511.09;;;23.87;58.91
11223;BME280;5668;52.012;8.724;2022-07-23T11:24:20;100507.13;;;23.98;58.54
11223;BME280;5668;52.012;8.724;2022-07-23T11:26:52;100513.94;;;24.07;57.78
11223;BME280;5668;52.012;8.724;2022-07-23T11:29:43;100515.22;;;24.11;57.54
11223;BME280;5668;52.012;8.724;2022-07-23T11:32:38;100516.91;;;24.19;56.70
11223;BME280;5668;52.012;8.724;2022-07-23T11:35:27;100510.88;;;24.25;56.67
11223;BME280;5668;52.012;8.724;2022-07-23T11:38:14;100518.53;;;24.35;56.87
11223;BME280;5668;52.012;8.724;2022-07-23T11:40:45;100507.13;;;24.41;55.20
11223;BME280;5668;52.012;8.724;2022-07-23T11:43:12;100518.84;;;24.53;54.56
11223;BME280;5668;52.012;8.724;2022-07-23T11:45:41;100517.84;;;24.54;54.46
11223;BME280;5668;52.012;8.724;2022-07-23T11:48:16;100517.25;;;24.58;54.27
11223;BME280;5668;52.012;8.724;2022-07-23T11:50:44;100517.06;;;24.60;53.13
11223;BME280;5668;52.012;8.724;2022-07-23T11:53:11;100512.84;;;24.65;53.69
11223;BME280;5668;52.012;8.724;2022-07-23T11:55:39;100515.31;;;24.74;53.51
11223;BME280;5668;52.012;8.724;2022-07-23T11:58:07;100514.75;;;24.78;53.57
11223;BME280;5668;52.012;8.724;2022-07-23T12:00:35;100515.13;;;24.75;53.89
11223;BME280;5668;52.012;8.724;2022-07-23T12:03:03;100515.13;;;24.75;53.73
11223;BME280;5668;52.012;8.724;2022-07-23T12:05:34;100507.19;;;24.82;53.25
11223;BME280;5668;52.012;8.724;2022-07-23T12:08:04;100503.16;;;24.86;53.41
11223;BME280;5668;52.012;8.724;2022-07-23T12:10:35;100511.38;;;24.91;53.02
11223;BME280;5668;52.012;8.724;2022-07-23T12:13:04;100514.88;;;24.91;52.29
11223;BME280;5668;52.012;8.724;2022-07-23T12:15:35;100516.44;;;24.86;52.09
11223;BME280;5668;52.012;8.724;2022-07-23T12:18:04;100514.59;;;24.86;52.77
11223;BME280;5668;52.012;8.724;2022-07-23T12:20:35;100507.66;;;24.85;51.77
11223;BME280;5668;52.012;8.724;2022-07-23T12:23:05;100508.88;;;24.89;51.76
11223;BME280;5668;52.012;8.724;2022-07-23T12:25:35;100507.03;;;24.90;51.54
11223;BME280;5668;52.012;8.724;2022-07-23T12:28:06;100514.50;;;24.94;50.89
11223;BME280;5668;52.012;8.724;2022-07-23T12:31:01;100510.19;;;24.93;50.97
11223;BME280;5668;52.012;8.724;2022-07-23T12:33:51;100510.19;;;24.93;51.07
11223;BME280;5668;52.012;8.724;2022-07-23T12:36:19;100507.13;;;24.96;50.79
11223;BME280;5668;52.012;8.724;2022-07-23T12:38:49;100506.13;;;25.04;50.64
11223;BME280;5668;52.012;8.724;2022-07-23T14:26:21;100512.50;;;25.57;47.77
11223;BME280;5668;52.012;8.724;2022-07-23T14:29:12;100521.50;;;25.50;47.76
11223;BME280;5668;52.012;8.724;2022-07-23T14:31:39;100514.94;;;25.45;48.47
11223;BME280;5668;52.012;8.724;2022-07-23T14:34:07;100513.28;;;25.44;47.63
11223;BME280;5668;52.012;8.724;2022-07-23T14:36:34;100518.81;;;25.43;47.93
11223;BME280;5668;52.012;8.724;2022-07-23T14:39:01;100524.31;;;25.41;47.65
11223;BME280;5668;52.012;8.724;2022-07-23T14:41:30;100517.38;;;25.40;47.58
11223;BME280;5668;52.012;8.724;2022-07-23T14:43:57;100517.38;;;25.40;47.74
11223;BME280;5668;52.012;8.724;2022-07-23T14:46:25;100512.63;;;25.29;47.31
11223;BME280;5668;52.012;8.724;2022-07-23T14:48:52;100525.06;;;25.22;47.23
11223;BME280;5668;52.012;8.724;2022-07-23T14:51:20;100520.56;;;25.23;46.83
11223;BME280;5668;52.012;8.724;2022-07-23T14:53:47;100520.97;;;25.20;47.72
11223;BME280;5668;52.012;8.724;2022-07-23T14:56:14;100521.59;;;25.22;47.67
11223;BME280;5668;52.012;8.724;2022-07-23T14:58:43;100518.91;;;25.15;47.12